sensor_id;sensor_type;location;lat;lon;timestamp;pressure;altitude;pressure_sealevel;temperature
62845;BMP280;48929;47.910;20.390;2023-05-10T00:02:01;99704.97;;;12.76
62845;BMP280;48929;47.910;20.390;2023-05-10T00:04:30;99715.06;;;12.78
62845;BMP280;48929;47.910;20.390;2023-05-10T00:07:01;99713.56;;;12.72
62845;BMP280;48929;47.910;20.390;2023-05-10T00:09:32;99712.59;;;12.68
62845;BMP280;48929;47.910;20.390;2023-05-10T00:12:01;99719.44;;;12.59
62845;BMP280;48929;47.910;20.390;2023-05-10T00:14:33;99712.22;;;12.56
62845;BMP280;48929;47.910;20.390;2023-05-10T00:17:02;99712.31;;;12.45
62845;BMP280;48929;47.910;20.390;2023-05-10T00:19:33;99713.97;;;12.41
62845;BMP280;48929;47.910;20.390;2023-05-10T00:22:03;99717.16;;;12.33
62845;BMP280;48929;47.910;20.390;2023-05-10T00:24:40;99691.69;;;12.22
62845;BMP280;48929;47.910;20.390;2023-05-10T00:27:09;99700.97;;;12.23
62845;BMP280;48929;47.910;20.390;2023-05-10T00:29:38;99702.03;;;12.22
62845;BMP280;48929;47.910;20.390;2023-05-10T00:32:08;99693.63;;;12.11
62845;BMP280;48929;47.910;20.390;2023-05-10T00:34:40;99687.47;;;12.07
62845;BMP280;48929;47.910;20.390;2023-05-10T00:37:12;99685.81;;;11.92
62845;BMP280;48929;47.910;20.390;2023-05-10T00:39:41;99678.84;;;11.93
62845;BMP280;48929;47.910;20.390;2023-05-10T00:42:11;99683.06;;;11.84
62845;BMP280;48929;47.910;20.390;2023-05-10T00:44:53;99687.50;;;11.78
62845;BMP280;48929;47.910;20.390;2023-05-10T00:47:23;99689.63;;;11.71
62845;BMP280;48929;47.910;20.390;2023-05-10T00:49:52;99681.50;;;11.59
62845;BMP280;48929;47.910;20.390;2023-05-10T00:52:26;99693.66;;;11.53
62845;BMP280;48929;47.910;20.390;2023-05-10T00:55:12;99689.03;;;11.50
62845;BMP280;48929;47.910;20.390;2023-05-10T00:57:41;99692.69;;;11.44
62845;BMP280;48929;47.910;20.390;2023-05-10T01:00:11;99691.25;;;11.33
62845;BMP280;48929;47.910;20.390;2023-05-10T01:02:47;99688.97;;;11.27
62845;BMP280;48929;47.910;20.390;2023-05-10T01:05:17;99689.72;;;11.27
62845;BMP280;48929;47.910;20.390;2023-05-10T01:07:56;99683.84;;;11.16
62845;BMP280;48929;47.910;20.390;2023-05-10T01:10:24;99687.03;;;11.08
62845;BMP280;48929;47.910;20.390;2023-05-10T01:12:53;99687.84;;;11.04
62845;BMP280;48929;47.910;20.390;2023-05-10T01:15:23;99684.00;;;10.96
62845;BMP280;48929;47.910;20.390;2023-05-10T01:17:55;99689.75;;;10.88
62845;BMP280;48929;47.910;20.390;2023-05-10T01:20:28;99695.16;;;10.87
62845;BMP280;48929;47.910;20.390;2023-05-10T01:23:38;99687.44;;;10.76
62845;BMP280;48929;47.910;20.390;2023-05-10T01:26:39;99679.50;;;10.73
62845;BMP280;48929;47.910;20.390;2023-05-10T01:29:32;99685.69;;;10.72
62845;BMP280;48929;47.910;20.390;2023-05-10T01:32:25;99679.22;;;10.69
62845;BMP280;48929;47.910;20.390;2023-05-10T01:35:00;99673.38;;;10.64
62845;BMP280;48929;47.910;20.390;2023-05-10T01:37:39;99671.28;;;10.66
62845;BMP280;48929;47.910;20.390;2023-05-10T01:40:14;99676.66;;;10.69
62845;BMP280;48929;47.910;20.390;2023-05-10T01:42:50;99670.25;;;10.67
62845;BMP280;48929;47.910;20.390;2023-05-10T01:45:24;99666.59;;;10.68
62845;BMP280;48929;47.910;20.390;2023-05-10T01:48:05;99668.41;;;10.67
62845;BMP280;48929;47.910;20.390;2023-05-10T01:50:35;99665.09;;;10.62
62845;BMP280;48929;47.910;20.390;2023-05-10T01:53:07;99665.63;;;10.64
62845;BMP280;48929;47.910;20.390;2023-05-10T01:55:43;99658.38;;;10.66
62845;BMP280;48929;47.910;20.390;2023-05-10T01:58:18;99662.22;;;10.73
62845;BMP280;48929;47.910;20.390;2023-05-10T02:00:49;99662.19;;;10.78
62845;BMP280;48929;47.910;20.390;2023-05-10T02:03:22;99663.72;;;10.79
62845;BMP280;48929;47.910;20.390;2023-05-10T02:05:54;99666.56;;;10.78
62845;BMP280;48929;47.910;20.390;2023-05-10T02:08:24;99664.25;;;10.76
62845;BMP280;48929;47.910;20.390;2023-05-10T02:10:54;99660.63;;;10.77
62845;BMP280;48929;47.910;20.390;2023-05-10T02:13:25;99660.13;;;10.75
62845;BMP280;48929;47.910;20.390;2023-05-10T02:16:05;99660.91;;;10.81
62845;BMP280;48929;47.910;20.390;2023-05-10T02:18:39;99652.38;;;10.81
62845;BMP280;48929;47.910;20.390;2023-05-10T02:21:10;99649.81;;;10.81
62845;BMP280;48929;47.910;20.390;2023-05-10T02:23:40;99649.28;;;10.78
62845;BMP280;48929;47.910;20.390;2023-05-10T02:26:15;99650.34;;;10.72
62845;BMP280;48929;47.910;20.390;2023-05-10T02:28:45;99650.34;;;10.72
62845;BMP280;48929;47.910;20.390;2023-05-10T02:31:15;99647.78;;;10.72
62845;BMP280;48929;47.910;20.390;2023-05-10T02:33:45;99654.47;;;10.68
62845;BMP280;48929;47.910;20.390;2023-05-10T02:36:18;99654.56;;;10.58
62845;BMP280;48929;47.910;20.390;2023-05-10T02:38:49;99658.66;;;10.59
62845;BMP280;48929;47.910;20.390;2023-05-10T02:41:20;99645.28;;;10.52
62845;BMP280;48929;47.910;20.390;2023-05-10T02:43:55;99645.84;;;10.49
62845;BMP280;48929;47.910;20.390;2023-05-10T02:46:24;99650.22;;;10.44
62845;BMP280;48929;47.910;20.390;2023-05-10T02:48:55;99647.66;;;10.38
62845;BMP280;48929;47.910;20.390;2023-05-10T02:51:25;99644.59;;;10.36
62845;BMP280;48929;47.910;20.390;2023-05-10T02:53:57;99644.88;;;10.30
62845;BMP280;48929;47.910;20.390;2023-05-10T02:56:33;99649.28;;;10.24
62845;BMP280;48929;47.910;20.390;2023-05-10T02:59:06;99646.44;;;10.21
62845;BMP280;48929;47.910;20.390;2023-05-10T03:01:35;99646.44;;;10.21
62845;BMP280;48929;47.910;20.390;2023-05-10T03:04:05;99642.34;;;10.15
62845;BMP280;48929;47.910;20.390;2023-05-10T03:06:34;99646.50;;;10.11
62845;BMP280;48929;47.910;20.390;2023-05-10T03:09:03;99644.16;;;10.14
62845;BMP280;48929;47.910;20.390;2023-05-10T03:11:43;99640.03;;;10.13
62845;BMP280;48929;47.910;20.390;2023-05-10T03:14:29;99656.31;;;10.09
62845;BMP280;48929;47.910;20.390;2023-05-10T03:17:11;99654.75;;;10.08
62845;BMP280;48929;47.910;20.390;2023-05-10T03:19:51;99651.91;;;10.04
62845;BMP280;48929;47.910;20.390;2023-05-10T03:22:25;99650.63;;;10.07
62845;BMP280;48929;47.910;20.390;2023-05-10T03:24:56;99645.22;;;10.03
62845;BMP280;48929;47.910;20.390;2023-05-10T03:27:26;99655.25;;;10.05
62845;BMP280;48929;47.910;20.390;2023-05-10T03:29:56;99654.22;;;10.01
62845;BMP280;48929;47.910;20.390;2023-05-10T03:32:28;99654.25;;;9.95
62845;BMP280;48929;47.910;20.390;2023-05-10T03:35:08;99658.88;;;9.98
62845;BMP280;48929;47.910;20.390;2023-05-10T03:37:39;99646.78;;;9.99
62845;BMP280;48929;47.910;20.390;2023-05-10T03:40:10;99651.41;;;10.07
62845;BMP280;48929;47.910;20.390;2023-05-10T03:42:41;99650.88;;;10.10
62845;BMP280;48929;47.910;20.390;2023-05-10T03:45:25;99649.53;;;10.18
62845;BMP280;48929;47.910;20.390;2023-05-10T03:47:54;99646.69;;;10.19
62845;BMP280;48929;47.910;20.390;2023-05-10T03:50:28;99647.75;;;10.23
62845;BMP280;48929;47.910;20.390;2023-05-10T03:53:01;99653.66;;;10.24
62845;BMP280;48929;47.910;20.390;2023-05-10T03:55:36;99651.59;;;10.21
62845;BMP280;48929;47.910;20.390;2023-05-10T03:58:11;99656.72;;;10.26
62845;BMP280;48929;47.910;20.390;2023-05-10T04:00:46;99645.69;;;10.20
62845;BMP280;48929;47.910;20.390;2023-05-10T04:03:23;99659.06;;;10.22
62845;BMP280;48929;47.910;20.390;2023-05-10T04:06:05;99658.53;;;10.30
62845;BMP280;48929;47.910;20.390;2023-05-10T04:08:57;99664.22;;;10.22
62845;BMP280;48929;47.910;20.390;2023-05-10T04:11:34;99671.16;;;10.27
62845;BMP280;48929;47.910;20.390;2023-05-10T04:14:03;99667.81;;;10.26
62845;BMP280;48929;47.910;20.390;2023-05-10T04:16:32;99669.88;;;10.29
62845;BMP280;48929;47.910;20.390;2023-05-10T04:19:02;99677.00;;;10.43
62845;BMP280;48929;47.910;20.390;2023-05-10T04:21:32;99671.63;;;10.39
62845;BMP280;48929;47.910;20.390;2023-05-10T04:24:04;99674.75;;;10.36
62845;BMP280;48929;47.910;20.390;2023-05-10T04:26:33;99683.25;;;10.36
62845;BMP280;48929;47.910;20.390;2023-05-10T04:29:02;99680.88;;;10.50
62845;BMP280;48929;47.910;20.390;2023-05-10T04:31:31;99682.13;;;10.63
62845;BMP280;48929;47.910;20.390;2023-05-10T04:34:05;99680.53;;;10.72
62845;BMP280;48929;47.910;20.390;2023-05-10T04:36:42;99693.38;;;10.82
62845;BMP280;48929;47.910;20.390;2023-05-10T04:39:17;99692.78;;;10.95
62845;BMP280;48929;47.910;20.390;2023-05-10T04:41:54;99676.50;;;11.00
62845;BMP280;48929;47.910;20.390;2023-05-10T04:44:22;99694.25;;;11.11
62845;BMP280;48929;47.910;20.390;2023-05-10T04:46:51;99686.69;;;11.20
62845;BMP280;48929;47.910;20.390;2023-05-10T04:49:20;99688.97;;;11.27
62845;BMP280;48929;47.910;20.390;2023-05-10T04:51:52;99690.91;;;11.45
62845;BMP280;48929;47.910;20.390;2023-05-10T04:54:21;99688.22;;;11.55
62845;BMP280;48929;47.910;20.390;2023-05-10T04:56:52;99682.22;;;11.65
62845;BMP280;48929;47.910;20.390;2023-05-10T04:59:37;99676.63;;;11.81
62845;BMP280;48929;47.910;20.390;2023-05-10T05:02:10;99660.97;;;11.73
62845;BMP280;48929;47.910;20.390;2023-05-10T05:04:40;99676.41;;;11.78
62845;BMP280;48929;47.910;20.390;2023-05-10T05:07:15;99668.34;;;11.84
62845;BMP280;48929;47.910;20.390;2023-05-10T05:09:47;99673.19;;;11.91
62845;BMP280;48929;47.910;20.390;2023-05-10T05:12:19;99668.22;;;11.94
62845;BMP280;48929;47.910;20.390;2023-05-10T05:15:09;99662.28;;;11.94
62845;BMP280;48929;47.910;20.390;2023-05-10T05:17:38;99679.53;;;11.98
62845;BMP280;48929;47.910;20.390;2023-05-10T05:20:08;99678.28;;;11.96
62845;BMP280;48929;47.910;20.390;2023-05-10T05:22:40;99679.28;;;12.00
62845;BMP280;48929;47.910;20.390;2023-05-10T05:25:09;99679.03;;;11.96
62845;BMP280;48929;47.910;20.390;2023-05-10T05:27:39;99679.00;;;12.01
62845;BMP280;48929;47.910;20.390;2023-05-10T05:30:13;99680.88;;;11.96
62845;BMP280;48929;47.910;20.390;2023-05-10T05:32:42;99686.50;;;11.98
62845;BMP280;48929;47.910;20.390;2023-05-10T05:35:11;99680.44;;;11.89
62845;BMP280;48929;47.910;20.390;2023-05-10T05:37:45;99681.47;;;11.88
62845;BMP280;48929;47.910;20.390;2023-05-10T05:40:21;99679.22;;;11.81
62845;BMP280;48929;47.910;20.390;2023-05-10T05:42:58;99690.53;;;11.85
62845;BMP280;48929;47.910;20.390;2023-05-10T05:45:32;99689.72;;;11.90
62845;BMP280;48929;47.910;20.390;2023-05-10T05:48:04;99688.13;;;11.94
62845;BMP280;48929;47.910;20.390;2023-05-10T05:50:34;99682.19;;;11.93
62845;BMP280;48929;47.910;20.390;2023-05-10T05:53:04;99685.72;;;12.02
62845;BMP280;48929;47.910;20.390;2023-05-10T05:55:33;99688.50;;;12.06
62845;BMP280;48929;47.910;20.390;2023-05-10T05:58:10;99687.66;;;12.16
62845;BMP280;48929;47.910;20.390;2023-05-10T06:00:41;99680.16;;;12.14
62845;BMP280;48929;47.910;20.390;2023-05-10T06:03:10;99688.97;;;12.32
62845;BMP280;48929;47.910;20.390;2023-05-10T06:05:39;99693.84;;;12.38
62845;BMP280;48929;47.910;20.390;2023-05-10T06:08:13;99696.22;;;12.54
62845;BMP280;48929;47.910;20.390;2023-05-10T06:10:42;99691.22;;;12.62
62845;BMP280;48929;47.910;20.390;2023-05-10T10:08:28;99658.25;;;18.37
62845;BMP280;48929;47.910;20.390;2023-05-10T10:11:59;99650.56;;;18.41
62845;BMP280;48929;47.910;20.390;2023-05-10T10:15:29;99642.09;;;18.23
62845;BMP280;48929;47.910;20.390;2023-05-10T10:18:43;99654.97;;;18.07
62845;BMP280;48929;47.910;20.390;2023-05-10T10:21:51;99665.31;;;17.95
62845;BMP280;48929;47.910;20.390;2023-05-10T10:25:14;99653.94;;;17.79
62845;BMP280;48929;47.910;20.390;2023-05-10T10:31:57;99659.66;;;17.93
62845;BMP280;48929;47.910;20.390;2023-05-10T10:34:56;99642.91;;;17.94
62845;BMP280;48929;47.910;20.390;2023-05-10T10:38:17;99621.78;;;17.66
62845;BMP280;48929;47.910;20.390;2023-05-10T10:41:38;99624.31;;;17.63
62845;BMP280;48929;47.910;20.390;2023-05-10T10:45:27;99623.63;;;17.74
62845;BMP280;48929;47.910;20.390;2023-05-10T10:48:27;99631.63;;;17.69
62845;BMP280;48929;47.910;20.390;2023-05-10T10:55:35;99622.81;;;17.95
62845;BMP280;48929;47.910;20.390;2023-05-10T10:59:22;99616.41;;;17.92
62845;BMP280;48929;47.910;20.390;2023-05-10T11:03:23;99627.34;;;17.86
62845;BMP280;48929;47.910;20.390;2023-05-10T11:06:39;99599.50;;;17.77
62845;BMP280;48929;47.910;20.390;2023-05-10T11:09:16;99604.13;;;17.93
62845;BMP280;48929;47.910;20.390;2023-05-10T11:11:51;99614.63;;;18.05
62845;BMP280;48929;47.910;20.390;2023-05-10T11:14:42;99616.19;;;18.18
62845;BMP280;48929;47.910;20.390;2023-05-10T11:29:53;99620.47;;;18.67
62845;BMP280;48929;47.910;20.390;2023-05-10T11:32:24;99619.09;;;19.18
62845;BMP280;48929;47.910;20.390;2023-05-10T11:34:56;99612.59;;;19.64
62845;BMP280;48929;47.910;20.390;2023-05-10T11:38:05;99593.34;;;20.12
62845;BMP280;48929;47.910;20.390;2023-05-10T11:40:40;99597.44;;;20.41
62845;BMP280;48929;47.910;20.390;2023-05-10T11:43:24;99586.31;;;20.44
62845;BMP280;48929;47.910;20.390;2023-05-10T11:46:11;99588.34;;;20.07
62845;BMP280;48929;47.910;20.390;2023-05-10T11:49:10;99577.03;;;19.76
62845;BMP280;48929;47.910;20.390;2023-05-10T11:52:06;99580.63;;;19.43
62845;BMP280;48929;47.910;20.390;2023-05-10T11:57:59;99594.50;;;18.95
62845;BMP280;48929;47.910;20.390;2023-05-10T12:00:56;99595.50;;;18.91
62845;BMP280;48929;47.910;20.390;2023-05-10T12:03:30;99583.72;;;18.85
62845;BMP280;48929;47.910;20.390;2023-05-10T12:06:16;99592.53;;;18.92
62845;BMP280;48929;47.910;20.390;2023-05-10T12:10:05;99574.59;;;18.91
62845;BMP280;48929;47.910;20.390;2023-05-10T12:12:52;99582.31;;;19.11
62845;BMP280;48929;47.910;20.390;2023-05-10T12:16:23;99578.41;;;19.17
62845;BMP280;48929;47.910;20.390;2023-05-10T12:19:03;99577.25;;;19.43
62845;BMP280;48929;47.910;20.390;2023-05-10T12:21:38;99575.13;;;19.60
62845;BMP280;48929;47.910;20.390;2023-05-10T12:24:34;99547.81;;;19.74
62845;BMP280;48929;47.910;20.390;2023-05-10T12:27:34;99540.44;;;19.76
62845;BMP280;48929;47.910;20.390;2023-05-10T12:30:59;99527.28;;;19.88
62845;BMP280;48929;47.910;20.390;2023-05-10T12:33:55;99523.38;;;19.82
62845;BMP280;48929;47.910;20.390;2023-05-10T12:36:30;99529.81;;;20.00
62845;BMP280;48929;47.910;20.390;2023-05-10T12:39:14;99527.66;;;19.74
62845;BMP280;48929;47.910;20.390;2023-05-10T12:42:19;99552.03;;;19.62
62845;BMP280;48929;47.910;20.390;2023-05-10T12:45:08;99540.25;;;19.68
62845;BMP280;48929;47.910;20.390;2023-05-10T12:47:48;99539.16;;;19.69
62845;BMP280;48929;47.910;20.390;2023-05-10T12:50:47;99536.19;;;19.71
62845;BMP280;48929;47.910;20.390;2023-05-10T12:54:03;99520.16;;;19.73
62845;BMP280;48929;47.910;20.390;2023-05-10T12:56:56;99515.56;;;19.54
62845;BMP280;48929;47.910;20.390;2023-05-10T12:59:57;99520.53;;;19.59
62845;BMP280;48929;47.910;20.390;2023-05-10T13:02:42;99519.59;;;19.51
62845;BMP280;48929;47.910;20.390;2023-05-10T13:06:04;99518.06;;;19.78
62845;BMP280;48929;47.910;20.390;2023-05-10T13:08:59;99515.22;;;19.99
62845;BMP280;48929;47.910;20.390;2023-05-10T13:14:55;99515.66;;;20.01
62845;BMP280;48929;47.910;20.390;2023-05-10T13:17:48;99503.25;;;19.98
62845;BMP280;48929;47.910;20.390;2023-05-10T13:20:21;99500.72;;;20.01
62845;BMP280;48929;47.910;20.390;2023-05-10T13:22:53;99498.34;;;19.96
62845;BMP280;48929;47.910;20.390;2023-05-10T13:25:23;99495.22;;;20.06
62845;BMP280;48929;47.910;20.390;2023-05-10T13:27:54;99496.75;;;20.07
62845;BMP280;48929;47.910;20.390;2023-05-10T13:30:23;99500.72;;;20.33
62845;BMP280;48929;47.910;20.390;2023-05-10T13:32:52;99491.06;;;20.52
62845;BMP280;48929;47.910;20.390;2023-05-10T13:35:21;99485.91;;;20.56
62845;BMP280;48929;47.910;20.390;2023-05-10T13:37:49;99491.13;;;20.72
62845;BMP280;48929;47.910;20.390;2023-05-10T13:40:23;99479.50;;;20.88
62845;BMP280;48929;47.910;20.390;2023-05-10T13:42:59;99469.09;;;21.11
62845;BMP280;48929;47.910;20.390;2023-05-10T13:45:34;99477.00;;;21.34
62845;BMP280;48929;47.910;20.390;2023-05-10T13:48:26;99464.09;;;21.44
62845;BMP280;48929;47.910;20.390;2023-05-10T13:50:55;99468.13;;;21.84
62845;BMP280;48929;47.910;20.390;2023-05-10T13:53:50;99456.00;;;21.98
62845;BMP280;48929;47.910;20.390;2023-05-10T13:56:31;99431.81;;;21.86
62845;BMP280;48929;47.910;20.390;2023-05-10T13:59:07;99442.38;;;21.66
62845;BMP280;48929;47.910;20.390;2023-05-10T14:01:37;99433.78;;;21.47
62845;BMP280;48929;47.910;20.390;2023-05-10T14:06:52;99430.09;;;21.29
62845;BMP280;48929;47.910;20.390;2023-05-10T14:09:20;99419.72;;;21.36
62845;BMP280;48929;47.910;20.390;2023-05-10T14:11:59;99430.09;;;21.51
62845;BMP280;48929;47.910;20.390;2023-05-10T14:14:32;99433.31;;;21.64
62845;BMP280;48929;47.910;20.390;2023-05-10T14:17:09;99419.94;;;21.69
62845;BMP280;48929;47.910;20.390;2023-05-10T14:20:06;99416.47;;;21.88
62845;BMP280;48929;47.910;20.390;2023-05-10T14:22:35;99410.97;;;21.70
62845;BMP280;48929;47.910;20.390;2023-05-10T14:25:04;99426.69;;;21.70
62845;BMP280;48929;47.910;20.390;2023-05-10T14:27:38;99415.34;;;21.89
62845;BMP280;48929;47.910;20.390;2023-05-10T14:30:11;99412.69;;;21.85
62845;BMP280;48929;47.910;20.390;2023-05-10T14:35:29;99413.38;;;21.82
62845;BMP280;48929;47.910;20.390;2023-05-10T14:38:09;99428.44;;;21.62
62845;BMP280;48929;47.910;20.390;2023-05-10T14:40:55;99412.69;;;21.40
62845;BMP280;48929;47.910;20.390;2023-05-10T14:43:26;99416.47;;;21.19
62845;BMP280;48929;47.910;20.390;2023-05-10T14:46:01;99426.03;;;21.12
62845;BMP280;48929;47.910;20.390;2023-05-10T14:48:37;99412.81;;;21.05
62845;BMP280;48929;47.910;20.390;2023-05-10T14:51:14;99410.34;;;20.93
62845;BMP280;48929;47.910;20.390;2023-05-10T14:53:49;99405.22;;;21.00
62845;BMP280;48929;47.910;20.390;2023-05-10T14:56:28;99411.03;;;21.32
62845;BMP280;48929;47.910;20.390;2023-05-10T14:59:26;99406.38;;;21.67
62845;BMP280;48929;47.910;20.390;2023-05-10T15:02:02;99409.19;;;21.78
62845;BMP280;48929;47.910;20.390;2023-05-10T15:05:01;99398.09;;;21.39
62845;BMP280;48929;47.910;20.390;2023-05-10T15:11:27;99415.22;;;20.75
62845;BMP280;48929;47.910;20.390;2023-05-10T15:15:05;99415.03;;;20.49
62845;BMP280;48929;47.910;20.390;2023-05-10T15:18:04;99416.47;;;20.27
62845;BMP280;48929;47.910;20.390;2023-05-10T15:20:39;99427.78;;;20.15
62845;BMP280;48929;47.910;20.390;2023-05-10T15:23:10;99426.53;;;20.09
62845;BMP280;48929;47.910;20.390;2023-05-10T15:25:44;99427.94;;;20.07
62845;BMP280;48929;47.910;20.390;2023-05-10T15:28:12;99420.38;;;20.02
62845;BMP280;48929;47.910;20.390;2023-05-10T15:30:46;99407.63;;;20.00
62845;BMP280;48929;47.910;20.390;2023-05-10T15:33:35;99407.28;;;20.02
62845;BMP280;48929;47.910;20.390;2023-05-10T15:36:07;99424.06;;;20.16
62845;BMP280;48929;47.910;20.390;2023-05-10T15:38:58;99420.63;;;20.12
62845;BMP280;48929;47.910;20.390;2023-05-10T15:41:29;99419.44;;;20.10
62845;BMP280;48929;47.910;20.390;2023-05-10T15:43:59;99413.44;;;20.09
62845;BMP280;48929;47.910;20.390;2023-05-10T15:46:33;99413.44;;;20.09
62845;BMP280;48929;47.910;20.390;2023-05-10T15:49:01;99415.47;;;20.00
62845;BMP280;48929;47.910;20.390;2023-05-10T15:51:37;99420.81;;;19.88
62845;BMP280;48929;47.910;20.390;2023-05-10T15:54:26;99409.97;;;19.74
62845;BMP280;48929;47.910;20.390;2023-05-10T15:57:01;99418.34;;;19.80
62845;BMP280;48929;47.910;20.390;2023-05-10T15:59:33;99415.81;;;19.83
62845;BMP280;48929;47.910;20.390;2023-05-10T16:02:12;99414.53;;;19.77
62845;BMP280;48929;47.910;20.390;2023-05-10T16:04:45;99412.91;;;19.73
62845;BMP280;48929;47.910;20.390;2023-05-10T16:07:23;99410.47;;;19.64
62845;BMP280;48929;47.910;20.390;2023-05-10T16:09:52;99405.84;;;19.57
62845;BMP280;48929;47.910;20.390;2023-05-10T16:12:24;99403.69;;;19.47
62845;BMP280;48929;47.910;20.390;2023-05-10T16:15:02;99408.34;;;19.38
62845;BMP280;48929;47.910;20.390;2023-05-10T16:17:37;99406.72;;;19.34
62845;BMP280;48929;47.910;20.390;2023-05-10T16:20:12;99411.72;;;19.39
62845;BMP280;48929;47.910;20.390;2023-05-10T16:22:44;99403.69;;;19.32
62845;BMP280;48929;47.910;20.390;2023-05-10T16:25:13;99403.16;;;19.26
62845;BMP280;48929;47.910;20.390;2023-05-10T16:27:43;99406.53;;;19.27
62845;BMP280;48929;47.910;20.390;2023-05-10T16:30:14;99404.63;;;19.39
62845;BMP280;48929;47.910;20.390;2023-05-10T16:33:06;99396.13;;;19.42
62845;BMP280;48929;47.910;20.390;2023-05-10T16:36:31;99399.47;;;19.27
62845;BMP280;48929;47.910;20.390;2023-05-10T16:39:07;99402.56;;;19.17
62845;BMP280;48929;47.910;20.390;2023-05-10T16:41:41;99405.31;;;19.08
62845;BMP280;48929;47.910;20.390;2023-05-10T16:44:10;99407.50;;;18.94
62845;BMP280;48929;47.910;20.390;2023-05-10T16:46:39;99410.94;;;18.83
62845;BMP280;48929;47.910;20.390;2023-05-10T16:49:09;99407.44;;;18.79
62845;BMP280;48929;47.910;20.390;2023-05-10T16:51:38;99413.31;;;18.88
62845;BMP280;48929;47.910;20.390;2023-05-10T16:54:11;99417.34;;;18.85
62845;BMP280;48929;47.910;20.390;2023-05-10T16:56:40;99426.06;;;18.77
62845;BMP280;48929;47.910;20.390;2023-05-10T16:59:12;99423.81;;;18.63
62845;BMP280;48929;47.910;20.390;2023-05-10T17:01:40;99434.22;;;18.51
62845;BMP280;48929;47.910;20.390;2023-05-10T17:04:11;99434.25;;;18.39
62845;BMP280;48929;47.910;20.390;2023-05-10T17:06:40;99436.53;;;18.29
62845;BMP280;48929;47.910;20.390;2023-05-10T17:09:09;99444.00;;;18.18
62845;BMP280;48929;47.910;20.390;2023-05-10T17:11:41;99449.34;;;18.09
62845;BMP280;48929;47.910;20.390;2023-05-10T17:14:15;99450.97;;;18.02
62845;BMP280;48929;47.910;20.390;2023-05-10T17:17:09;99445.28;;;17.88
62845;BMP280;48929;47.910;20.390;2023-05-10T17:19:43;99464.19;;;17.85
62845;BMP280;48929;47.910;20.390;2023-05-10T17:22:26;99450.22;;;17.68
62845;BMP280;48929;47.910;20.390;2023-05-10T17:24:54;99461.59;;;17.64
62845;BMP280;48929;47.910;20.390;2023-05-10T17:27:36;99457.94;;;17.44
62845;BMP280;48929;47.910;20.390;2023-05-10T17:30:14;99470.13;;;17.31
62845;BMP280;48929;47.910;20.390;2023-05-10T17:32:45;99459.81;;;17.14
62845;BMP280;48929;47.910;20.390;2023-05-10T17:35:16;99474.31;;;17.03
62845;BMP280;48929;47.910;20.390;2023-05-10T17:37:45;99476.25;;;16.85
62845;BMP280;48929;47.910;20.390;2023-05-10T17:40:14;99474.03;;;16.67
62845;BMP280;48929;47.910;20.390;2023-05-10T17:42:49;99475.78;;;16.54
62845;BMP280;48929;47.910;20.390;2023-05-10T17:45:30;99477.19;;;16.34
62845;BMP280;48929;47.910;20.390;2023-05-10T17:47:59;99470.22;;;16.18
62845;BMP280;48929;47.910;20.390;2023-05-10T17:50:33;99487.22;;;15.98
62845;BMP280;48929;47.910;20.390;2023-05-10T17:54:00;99504.50;;;15.77
62845;BMP280;48929;47.910;20.390;2023-05-10T17:56:29;99489.66;;;15.60
62845;BMP280;48929;47.910;20.390;2023-05-10T18:02:05;99488.88;;;15.25
62845;BMP280;48929;47.910;20.390;2023-05-10T18:04:41;99492.94;;;15.09
62845;BMP280;48929;47.910;20.390;2023-05-10T18:07:35;99484.66;;;14.90
62845;BMP280;48929;47.910;20.390;2023-05-10T18:10:09;99492.81;;;14.75
62845;BMP280;48929;47.910;20.390;2023-05-10T18:13:06;99505.84;;;14.52
62845;BMP280;48929;47.910;20.390;2023-05-10T18:15:39;99513.38;;;14.40
62845;BMP280;48929;47.910;20.390;2023-05-10T18:18:11;99495.63;;;14.25
62845;BMP280;48929;47.910;20.390;2023-05-10T18:20:40;99495.38;;;14.13
62845;BMP280;48929;47.910;20.390;2023-05-10T18:23:16;99507.19;;;14.05
62845;BMP280;48929;47.910;20.390;2023-05-10T18:25:49;99490.38;;;13.81
62845;BMP280;48929;47.910;20.390;2023-05-10T18:28:49;99519.84;;;13.71
62845;BMP280;48929;47.910;20.390;2023-05-10T18:31:44;99527.56;;;13.49
62845;BMP280;48929;47.910;20.390;2023-05-10T18:34:24;99513.72;;;13.26
62845;BMP280;48929;47.910;20.390;2023-05-10T18:41:06;99519.31;;;13.06
62845;BMP280;48929;47.910;20.390;2023-05-10T18:43:39;99522.34;;;12.94
62845;BMP280;48929;47.910;20.390;2023-05-10T18:46:10;99517.63;;;12.82
62845;BMP280;48929;47.910;20.390;2023-05-10T18:48:40;99533.50;;;12.76
62845;BMP280;48929;47.910;20.390;2023-05-10T18:51:14;99530.63;;;12.64
62845;BMP280;48929;47.910;20.390;2023-05-10T18:53:50;99531.06;;;12.52
62845;BMP280;48929;47.910;20.390;2023-05-10T18:56:28;99531.22;;;12.42
62845;BMP280;48929;47.910;20.390;2023-05-10T19:00:17;99539.94;;;12.27
62845;BMP280;48929;47.910;20.390;2023-05-10T19:11:34;99539.91;;;11.90
62845;BMP280;48929;47.910;20.390;2023-05-10T19:14:07;99546.16;;;11.89
62845;BMP280;48929;47.910;20.390;2023-05-10T19:16:38;99542.78;;;11.88
62845;BMP280;48929;47.910;20.390;2023-05-10T20:51:25;99551.75;;;11.48
62845;BMP280;48929;47.910;20.390;2023-05-10T20:54:05;99547.97;;;11.41
62845;BMP280;48929;47.910;20.390;2023-05-10T20:56:58;99546.41;;;11.40
62845;BMP280;48929;47.910;20.390;2023-05-10T20:59:55;99548.03;;;11.31
62845;BMP280;48929;47.910;20.390;2023-05-10T21:02:35;99537.00;;;11.25
62845;BMP280;48929;47.910;20.390;2023-05-10T21:05:33;99538.91;;;11.14
62845;BMP280;48929;47.910;20.390;2023-05-10T21:08:11;99549.00;;;11.11
62845;BMP280;48929;47.910;20.390;2023-05-10T21:10:53;99544.44;;;11.03
62845;BMP280;48929;47.910;20.390;2023-05-10T21:13:37;99532.81;;;11.05
62845;BMP280;48929;47.910;20.390;2023-05-10T21:16:06;99528.13;;;11.12
62845;BMP280;48929;47.910;20.390;2023-05-10T21:18:55;99527.78;;;11.19
62845;BMP280;48929;47.910;20.390;2023-05-10T21:21:26;99536.66;;;11.37
62845;BMP280;48929;47.910;20.390;2023-05-10T21:23:58;99544.00;;;11.48
62845;BMP280;48929;47.910;20.390;2023-05-10T21:26:27;99542.84;;;11.59